Time;durP1;ratioP1;P1;durP2;ratioP2;P2;SDS_P1;SDS_P2;PMS_P1;PMS_P2;Temp;Humidity;BMP_temperature;BMP_pressure;BME280_temperature;BME280_humidity;BME280_pressure;Samples;Min_cycle;Max_cycle;Signal;HPM_P1;HPM_P2
2022/01/15 00:01:44;;;;;;;77.72;26.73;;;5.00;99.90;;;;;;5078332;28;20526;-74
2022/01/15 00:04:10;;;;;;;80.75;28.13;;;5.00;99.90;;;;;;5074761;28;20041;-74
2022/01/15 00:06:35;;;;;;;77.00;26.38;;;5.00;99.90;;;;;;5076045;28;20052;-75
2022/01/15 00:09:02;;;;;;;73.13;27.50;;;5.00;99.90;;;;;;5075867;28;20472;-76
2022/01/15 00:11:27;;;;;;;74.80;27.17;;;5.00;99.90;;;;;;5075389;28;20479;-74
2022/01/15 00:13:57;;;;;;;76.18;27.63;;;5.00;99.90;;;;;;5075295;28;20067;-74
2022/01/15 00:16:32;;;;;;;84.63;27.73;;;5.00;99.90;;;;;;5074819;28;20124;-75
2022/01/15 00:21:29;;;;;;;75.80;27.52;;;5.00;99.90;;;;;;5075499;28;20029;-76
2022/01/15 00:23:55;;;;;;;68.22;26.88;;;5.00;99.90;;;;;;5074351;28;20025;-74
2022/01/15 00:26:21;;;;;;;90.25;29.17;;;5.00;99.90;;;;;;5074658;28;20032;-74
2022/01/15 00:28:46;;;;;;;81.28;27.45;;;4.90;99.90;;;;;;5076060;28;20050;-75
2022/01/15 00:31:12;;;;;;;77.25;28.13;;;5.00;99.90;;;;;;5074138;28;20028;-74
2022/01/15 00:33:38;;;;;;;82.70;26.27;;;4.90;99.90;;;;;;5075062;28;20021;-75
2022/01/15 00:36:06;;;;;;;77.65;26.85;;;5.00;99.90;;;;;;5074764;28;20093;-75
2022/01/15 00:38:32;;;;;;;91.47;27.92;;;5.00;99.90;;;;;;5075027;28;20380;-73
2022/01/15 00:40:58;;;;;;;82.93;26.65;;;4.90;99.90;;;;;;5074697;28;20028;-74
2022/01/15 00:43:24;;;;;;;68.30;24.20;;;4.90;99.90;;;;;;5074565;28;20472;-74
2022/01/15 00:45:50;;;;;;;65.70;23.20;;;4.90;99.90;;;;;;5074186;28;20021;-73
2022/01/15 00:48:15;;;;;;;69.15;23.63;;;4.90;99.90;;;;;;5074396;28;20020;-74
2022/01/15 00:50:42;;;;;;;66.35;22.77;;;4.90;99.90;;;;;;5074233;28;20020;-74
2022/01/15 00:53:08;;;;;;;70.22;24.98;;;4.80;99.90;;;;;;5074617;28;20036;-73
2022/01/15 00:55:33;;;;;;;66.28;23.27;;;4.80;99.90;;;;;;5074801;28;20086;-74
2022/01/15 00:57:59;;;;;;;71.03;23.75;;;4.80;99.90;;;;;;5073940;28;20447;-74
2022/01/15 01:00:27;;;;;;;65.82;24.67;;;4.80;99.90;;;;;;5073504;28;20051;-74
2022/01/15 01:02:52;;;;;;;70.38;25.15;;;4.80;99.90;;;;;;5074152;28;20021;-75
2022/01/15 01:05:20;;;;;;;65.93;23.20;;;4.80;99.90;;;;;;5081737;28;20047;-75
2022/01/15 01:07:46;;;;;;;66.65;24.80;;;4.80;99.90;;;;;;5093937;28;20044;-74
2022/01/15 01:23:26;;;;;;;58.60;21.58;;;4.80;99.90;;;;;;5093097;28;20016;-75
2022/01/15 01:25:58;;;;;;;62.83;21.95;;;4.70;99.90;;;;;;5092046;28;20111;-75
2022/01/15 01:30:57;;;;;;;60.53;21.00;;;4.70;99.90;;;;;;5093322;28;20039;-75
2022/01/15 01:38:54;;;;;;;66.95;22.15;;;4.60;99.90;;;;;;5058082;28;20110;-73
2022/01/15 01:41:21;;;;;;;59.78;22.27;;;4.70;99.90;;;;;;5092612;28;20028;-75
2022/01/15 01:44:01;;;;;;;78.63;24.80;;;4.70;99.90;;;;;;5093279;28;20073;-75
2022/01/15 01:48:54;;;;;;;55.42;21.30;;;4.60;99.90;;;;;;5092726;28;20028;-75
2022/01/15 01:51:33;;;;;;;58.53;20.90;;;4.70;99.90;;;;;;5095895;28;20054;-75
2022/01/15 01:54:08;;;;;;;57.60;21.15;;;4.70;99.90;;;;;;5092320;28;20466;-75
2022/01/15 01:56:34;;;;;;;52.58;19.23;;;4.60;99.90;;;;;;5092998;28;20043;-75
2022/01/15 01:59:01;;;;;;;57.25;20.77;;;4.60;99.90;;;;;;5092859;28;20031;-75
2022/01/15 02:01:26;;;;;;;56.72;19.63;;;4.60;99.90;;;;;;5091733;28;20112;-73
2022/01/15 02:03:53;;;;;;;62.17;20.52;;;4.60;99.90;;;;;;5092654;28;20506;-73
2022/01/15 02:06:19;;;;;;;59.45;22.30;;;4.60;99.90;;;;;;5092498;28;20111;-73
2022/01/15 02:08:45;;;;;;;60.30;20.85;;;4.60;99.90;;;;;;5091822;28;20417;-73
2022/01/15 02:11:12;;;;;;;64.53;21.80;;;4.60;99.90;;;;;;5092416;28;20032;-73
2022/01/15 02:13:40;;;;;;;58.50;20.10;;;4.60;99.90;;;;;;5092462;28;20069;-75
2022/01/15 02:16:06;;;;;;;63.55;22.20;;;4.60;99.90;;;;;;5091639;28;20479;-75
2022/01/15 02:18:34;;;;;;;58.95;20.08;;;4.50;99.90;;;;;;5092616;28;20024;-74
2022/01/15 02:23:33;;;;;;;56.83;19.55;;;4.50;99.90;;;;;;5092386;28;20111;-73
2022/01/15 02:23:51;;;;;;;59.55;22.58;;;4.50;99.90;;;;;;5091689;28;20028;-75
2022/01/15 02:26:25;;;;;;;55.90;18.23;;;4.50;99.90;;;;;;5092269;28;20053;-73
2022/01/15 02:28:52;;;;;;;53.03;19.83;;;4.50;99.90;;;;;;5092672;28;20028;-73
2022/01/15 02:31:19;;;;;;;56.15;20.58;;;4.50;99.90;;;;;;5091997;28;20032;-73
2022/01/15 02:33:46;;;;;;;62.10;20.63;;;3.80;99.90;;;;;;5092426;28;20035;-74
2022/01/15 02:36:34;;;;;;;53.70;19.10;;;4.40;99.90;;;;;;5091489;28;20040;-74
2022/01/15 02:38:59;;;;;;;56.10;19.77;;;4.50;99.90;;;;;;5092205;28;20103;-74
2022/01/15 02:41:31;;;;;;;50.42;18.80;;;4.40;99.90;;;;;;5091925;28;20112;-74
2022/01/15 02:43:58;;;;;;;47.65;18.02;;;4.40;99.90;;;;;;5091531;28;20038;-73
2022/01/15 02:48:00;;;;;;;61.05;20.15;;;4.40;99.90;;;;;;5093116;28;20069;-74
2022/01/15 02:49:10;;;;;;;65.65;22.25;;;4.40;99.90;;;;;;5091863;28;20492;-73
2022/01/15 02:51:36;;;;;;;56.42;20.35;;;4.30;99.90;;;;;;5091595;28;20017;-72
2022/01/15 02:54:04;;;;;;;60.47;20.42;;;4.30;99.90;;;;;;5092126;28;20024;-75
2022/01/15 02:56:36;;;;;;;53.90;19.48;;;4.30;99.90;;;;;;5092201;28;20035;-74
2022/01/15 02:59:07;;;;;;;54.25;19.45;;;4.30;99.90;;;;;;5091769;28;20111;-74
2022/01/15 03:01:34;;;;;;;64.38;21.52;;;4.20;99.90;;;;;;5092907;28;20016;-74
2022/01/15 03:03:59;;;;;;;64.50;21.75;;;4.20;99.90;;;;;;5092185;28;20492;-74
2022/01/15 03:06:25;;;;;;;57.40;20.45;;;4.20;99.90;;;;;;5091708;28;20024;-74
2022/01/15 03:08:54;;;;;;;50.45;18.80;;;4.30;99.90;;;;;;5093002;28;20020;-74
2022/01/15 03:11:21;;;;;;;56.50;20.20;;;4.30;99.90;;;;;;5091643;28;20182;-74
2022/01/15 03:13:47;;;;;;;59.30;20.45;;;4.20;99.90;;;;;;5092421;28;20024;-74
2022/01/15 03:16:19;;;;;;;62.05;20.85;;;4.20;99.90;;;;;;5092323;28;20031;-74
2022/01/15 03:18:45;;;;;;;65.45;19.75;;;4.20;99.90;;;;;;5091477;28;20476;-74
2022/01/15 03:21:11;;;;;;;54.88;18.58;;;4.20;99.90;;;;;;5092531;28;20058;-74
2022/01/15 03:23:44;;;;;;;46.05;17.63;;;4.20;99.90;;;;;;5092696;28;20464;-74
2022/01/15 03:26:13;;;;;;;50.05;19.08;;;4.20;99.90;;;;;;5091946;28;20084;-74
2022/01/15 03:28:40;;;;;;;52.13;19.55;;;4.10;99.90;;;;;;5092835;28;20024;-74
2022/01/15 03:31:05;;;;;;;66.63;20.80;;;4.10;99.90;;;;;;5092316;28;20481;-74
2022/01/15 03:33:32;;;;;;;52.72;19.27;;;4.10;99.90;;;;;;5091261;28;20155;-74
2022/01/15 03:35:58;;;;;;;52.13;20.00;;;4.10;99.90;;;;;;5092482;28;20184;-75
2022/01/15 03:38:30;;;;;;;47.78;19.02;;;4.10;99.90;;;;;;5091807;28;20103;-74
2022/01/15 03:40:55;;;;;;;55.10;19.15;;;4.10;99.90;;;;;;5091571;28;20169;-74
2022/01/15 03:43:21;;;;;;;52.40;18.55;;;4.10;99.90;;;;;;5092205;28;20061;-74
2022/01/15 03:45:47;;;;;;;53.40;18.88;;;4.10;99.90;;;;;;5092620;28;20380;-74
2022/01/15 03:48:12;;;;;;;53.08;20.00;;;4.10;99.90;;;;;;5092153;28;20390;-74
2022/01/15 03:50:38;;;;;;;49.33;18.83;;;4.20;99.90;;;;;;5096294;28;20020;-74
2022/01/15 03:53:04;;;;;;;50.85;20.05;;;4.20;99.90;;;;;;5095478;28;20430;-74
2022/01/15 03:55:29;;;;;;;52.45;18.80;;;4.10;99.90;;;;;;5094697;28;20479;-74
2022/01/15 03:57:55;;;;;;;50.70;19.48;;;4.10;99.90;;;;;;5096195;28;20016;-74
2022/01/15 04:00:27;;;;;;;48.95;18.02;;;4.10;99.90;;;;;;5095574;28;20305;-74
2022/01/15 04:02:54;;;;;;;45.20;16.23;;;4.00;99.90;;;;;;5095074;28;20495;-74
2022/01/15 04:05:21;;;;;;;42.67;15.35;;;4.10;99.90;;;;;;5095808;28;20050;-74
2022/01/15 04:07:47;;;;;;;38.00;16.17;;;4.10;99.90;;;;;;5094875;28;20021;-73
2022/01/15 04:10:15;;;;;;;42.70;16.38;;;4.00;99.90;;;;;;5095851;28;20076;-74
2022/01/15 04:12:41;;;;;;;39.78;15.95;;;4.00;99.90;;;;;;5095041;28;20059;-74
2022/01/15 04:15:08;;;;;;;49.55;18.00;;;4.00;99.90;;;;;;5094173;28;20425;-74
2022/01/15 04:17:34;;;;;;;56.03;19.35;;;4.00;99.90;;;;;;5095393;28;20017;-74
2022/01/15 04:20:06;;;;;;;50.03;18.70;;;4.00;99.90;;;;;;5096797;28;20028;-73
2022/01/15 04:22:32;;;;;;;51.38;18.80;;;4.00;99.90;;;;;;5094402;28;20333;-74
2022/01/15 04:24:57;;;;;;;52.95;17.45;;;3.90;99.90;;;;;;5095226;28;20030;-74
2022/01/15 04:27:23;;;;;;;47.97;15.32;;;3.90;99.90;;;;;;5094799;28;20067;-74
2022/01/15 04:29:50;;;;;;;55.25;16.15;;;3.90;99.90;;;;;;5094276;28;20479;-75
2022/01/15 04:32:16;;;;;;;34.03;14.45;;;3.90;99.90;;;;;;5095162;28;20035;-74
2022/01/15 04:34:41;;;;;;;44.03;17.40;;;3.90;99.90;;;;;;5095541;28;20032;-74
2022/01/15 04:37:13;;;;;;;37.25;14.95;;;3.90;99.90;;;;;;5094587;28;20024;-74
2022/01/15 04:39:39;;;;;;;40.90;16.35;;;3.90;99.90;;;;;;5095298;28;20032;-74
2022/01/15 04:42:05;;;;;;;42.55;17.35;;;3.80;99.90;;;;;;5095318;28;20046;-74
2022/01/15 04:44:31;;;;;;;41.05;15.98;;;3.90;99.90;;;;;;5094834;28;20467;-74
2022/01/15 04:46:56;;;;;;;43.50;16.40;;;3.90;99.90;;;;;;5094817;28;20028;-74
2022/01/15 04:49:22;;;;;;;44.30;15.52;;;3.80;99.90;;;;;;5094416;28;20191;-74
2022/01/15 04:51:47;;;;;;;50.25;17.10;;;3.80;99.90;;;;;;5094434;28;20024;-75
2022/01/15 04:54:13;;;;;;;63.00;19.85;;;3.80;99.90;;;;;;5096446;28;20077;-74
2022/01/15 04:56:39;;;;;;;41.90;15.60;;;3.80;99.90;;;;;;5095478;28;20048;-74
2022/01/15 04:59:04;;;;;;;57.95;17.80;;;3.80;99.90;;;;;;5093794;28;20020;-74
2022/01/15 05:01:30;;;;;;;58.10;17.30;;;3.80;99.90;;;;;;5093425;28;20031;-73
2022/01/15 05:03:56;;;;;;;56.55;17.13;;;3.70;99.90;;;;;;5093686;28;20123;-73
2022/01/15 05:06:21;;;;;;;51.30;18.55;;;3.70;99.90;;;;;;5094250;28;20080;-73
2022/01/15 05:08:51;;;;;;;60.60;20.25;;;3.60;99.90;;;;;;5094927;28;20031;-73
2022/01/15 05:11:33;;;;;;;62.40;21.92;;;3.60;99.90;;;;;;5093587;28;20036;-73
2022/01/15 05:13:58;;;;;;;57.22;19.40;;;3.60;99.90;;;;;;5094245;28;20491;-73
2022/01/15 05:16:24;;;;;;;55.85;17.92;;;3.60;99.90;;;;;;5094032;28;20032;-73
2022/01/15 05:18:49;;;;;;;46.58;17.65;;;3.60;99.90;;;;;;5092688;28;20024;-73
2022/01/15 05:21:15;;;;;;;57.85;20.33;;;3.70;99.90;;;;;;5093494;28;20073;-73
2022/01/15 05:23:43;;;;;;;51.95;18.98;;;3.60;99.90;;;;;;5093486;28;20028;-73
2022/01/15 05:26:10;;;;;;;55.13;18.45;;;3.70;99.90;;;;;;5092591;28;20041;-74
2022/01/15 05:28:36;;;;;;;49.53;20.35;;;3.70;99.90;;;;;;5093498;28;20112;-73
2022/01/15 05:31:01;;;;;;;54.47;18.98;;;3.70;99.90;;;;;;5093331;28;20043;-73
2022/01/15 05:33:27;;;;;;;61.15;21.15;;;3.60;99.90;;;;;;5092344;28;20028;-73
2022/01/15 05:35:52;;;;;;;54.80;22.13;;;3.50;99.90;;;;;;5093159;28;20039;-74
2022/01/15 05:38:18;;;;;;;66.22;22.30;;;3.60;99.90;;;;;;5093196;28;20030;-73
2022/01/15 05:40:43;;;;;;;70.22;22.48;;;3.50;99.90;;;;;;5092632;28;20357;-73
2022/01/15 05:43:09;;;;;;;77.90;23.90;;;3.50;99.90;;;;;;5093033;28;20468;-72
2022/01/15 05:45:34;;;;;;;66.85;24.33;;;3.50;99.90;;;;;;5093541;28;20020;-73
2022/01/15 05:48:00;;;;;;;76.82;24.38;;;3.50;99.90;;;;;;5092509;28;20058;-72
2022/01/15 05:50:28;;;;;;;81.57;24.58;;;3.50;99.90;;;;;;5092988;28;20028;-73
2022/01/15 05:52:54;;;;;;;70.18;24.83;;;3.50;99.90;;;;;;5093050;28;20023;-73
2022/01/15 05:55:19;;;;;;;64.70;24.30;;;3.50;99.90;;;;;;5092170;28;20036;-73
2022/01/15 05:57:45;;;;;;;82.43;23.67;;;3.50;99.90;;;;;;5092867;28;20047;-74
2022/01/15 06:00:11;;;;;;;70.68;24.98;;;3.60;99.90;;;;;;5091605;28;20556;-73
2022/01/15 06:02:36;;;;;;;66.45;23.67;;;3.60;99.90;;;;;;5092636;28;20484;-73
2022/01/15 06:05:02;;;;;;;76.35;24.80;;;3.60;99.90;;;;;;5092683;28;20127;-73
2022/01/15 06:07:28;;;;;;;91.30;25.85;;;3.60;99.90;;;;;;5092747;28;20458;-74
2022/01/15 06:09:53;;;;;;;91.93;24.95;;;3.50;99.90;;;;;;5093197;28;20031;-73
2022/01/15 06:12:19;;;;;;;80.20;26.73;;;3.60;99.90;;;;;;5092710;28;20016;-72
2022/01/15 06:14:45;;;;;;;77.57;25.85;;;3.50;99.90;;;;;;5092084;28;20039;-73
2022/01/15 06:17:11;;;;;;;82.50;27.02;;;3.50;99.90;;;;;;5092905;28;20383;-76
2022/01/15 06:19:37;;;;;;;75.68;27.90;;;3.40;99.90;;;;;;5092985;28;20024;-74
2022/01/15 06:22:04;;;;;;;107.97;29.90;;;3.40;99.90;;;;;;5092206;28;20034;-75
2022/01/15 06:24:30;;;;;;;98.03;29.02;;;3.50;99.90;;;;;;5092989;28;20024;-73
2022/01/15 06:26:56;;;;;;;86.47;27.98;;;3.50;99.90;;;;;;5092967;28;20490;-72
2022/01/15 06:29:22;;;;;;;85.07;26.33;;;3.50;99.90;;;;;;5092084;28;20468;-73
2022/01/15 06:31:48;;;;;;;74.28;25.98;;;3.50;99.90;;;;;;5092861;28;20061;-73
2022/01/15 06:34:13;;;;;;;86.85;28.08;;;3.50;99.90;;;;;;5092785;28;20088;-73
2022/01/15 06:36:39;;;;;;;80.95;25.33;;;3.50;99.90;;;;;;5092391;28;20420;-75
2022/01/15 06:39:04;;;;;;;75.40;25.70;;;3.50;99.90;;;;;;5092642;28;20024;-74
2022/01/15 06:41:30;;;;;;;81.60;27.30;;;3.50;99.90;;;;;;5093172;28;20024;-76
2022/01/15 06:43:58;;;;;;;78.80;29.40;;;3.50;99.90;;;;;;5092217;28;20111;-75
2022/01/15 06:46:23;;;;;;;90.97;27.90;;;3.50;99.90;;;;;;5092327;28;20044;-75
2022/01/15 06:48:49;;;;;;;89.97;27.13;;;3.50;99.90;;;;;;5092749;28;20112;-75
2022/01/15 06:51:16;;;;;;;73.38;26.38;;;3.50;99.90;;;;;;5092104;28;20376;-75
2022/01/15 06:53:41;;;;;;;82.43;27.80;;;3.50;99.90;;;;;;5094868;28;20111;-75
2022/01/15 06:56:07;;;;;;;97.15;27.27;;;3.50;99.90;;;;;;5091950;28;20031;-75
2022/01/15 06:58:33;;;;;;;77.32;28.20;;;3.50;99.90;;;;;;5091747;28;20031;-75
2022/01/15 07:00:59;;;;;;;86.47;28.33;;;3.40;99.90;;;;;;5092708;28;20496;-76
2022/01/15 07:03:24;;;;;;;102.65;28.48;;;3.50;99.90;;;;;;5092795;28;20031;-76
2022/01/15 07:05:50;;;;;;;80.05;29.33;;;3.50;99.90;;;;;;5088624;28;20028;-77
2022/01/15 07:08:15;;;;;;;93.90;27.65;;;3.60;99.90;;;;;;5090405;28;20028;-76
2022/01/15 07:10:41;;;;;;;88.05;27.63;;;3.60;99.90;;;;;;5090193;28;20016;-77
2022/01/15 07:13:08;;;;;;;106.68;29.15;;;3.60;99.90;;;;;;5091302;28;20032;-75
2022/01/15 07:15:34;;;;;;;116.95;30.42;;;3.60;99.90;;;;;;5093834;28;20074;-76
2022/01/15 07:18:00;;;;;;;105.78;30.20;;;3.60;99.90;;;;;;5100931;28;20024;-76
2022/01/15 07:20:27;;;;;;;106.22;30.17;;;3.60;99.90;;;;;;5091204;28;20028;-77
2022/01/15 07:22:53;;;;;;;109.47;31.75;;;3.60;99.90;;;;;;5090487;28;20030;-76
2022/01/15 07:25:19;;;;;;;97.22;33.15;;;3.60;99.90;;;;;;5094157;28;20017;-76
2022/01/15 07:27:45;;;;;;;106.63;33.28;;;3.60;99.90;;;;;;5094235;28;20362;-76
2022/01/15 07:30:13;;;;;;;96.80;32.92;;;3.60;99.90;;;;;;5093422;28;20055;-75
2022/01/15 07:32:40;;;;;;;86.10;30.70;;;3.60;99.90;;;;;;5094304;28;20111;-77
2022/01/15 07:35:08;;;;;;;105.65;31.48;;;3.70;99.90;;;;;;5094637;28;20095;-77
2022/01/15 07:37:35;;;;;;;88.82;30.80;;;3.70;99.90;;;;;;5094701;28;20475;-76
2022/01/15 07:40:01;;;;;;;94.05;30.17;;;3.70;99.90;;;;;;5094555;28;20032;-77
2022/01/15 07:42:33;;;;;;;77.90;30.45;;;3.80;99.90;;;;;;5093755;28;20032;-75
2022/01/15 07:44:59;;;;;;;102.90;34.63;;;3.80;99.90;;;;;;5094447;28;20016;-75
2022/01/15 07:47:24;;;;;;;104.07;31.20;;;3.80;99.90;;;;;;5092759;28;20498;-76
2022/01/15 07:49:50;;;;;;;89.68;31.20;;;3.80;99.90;;;;;;5092706;28;20510;-75
2022/01/15 07:52:16;;;;;;;95.55;33.72;;;3.80;99.90;;;;;;5092879;28;20032;-76
2022/01/15 07:54:41;;;;;;;97.88;33.15;;;3.70;99.90;;;;;;5092145;28;20032;-75
2022/01/15 07:57:07;;;;;;;90.05;34.05;;;3.80;99.90;;;;;;5092388;28;20665;-76
2022/01/15 07:59:33;;;;;;;89.50;32.03;;;3.80;99.90;;;;;;5092294;28;20069;-75
2022/01/15 08:01:59;;;;;;;101.03;34.88;;;3.80;99.90;;;;;;5086873;28;20032;-75
2022/01/15 08:04:24;;;;;;;101.22;33.17;;;3.80;99.90;;;;;;5088080;28;20483;-75
2022/01/15 08:06:50;;;;;;;97.88;32.72;;;3.90;99.90;;;;;;5079730;28;20510;-75
2022/01/15 08:09:15;;;;;;;88.68;32.55;;;3.90;99.90;;;;;;5077950;28;20039;-75
2022/01/15 08:11:41;;;;;;;79.68;30.33;;;3.90;99.90;;;;;;5084177;28;20102;-76
2022/01/15 08:14:06;;;;;;;90.30;32.00;;;3.90;99.90;;;;;;5077661;28;20538;-76
2022/01/15 08:16:32;;;;;;;79.20;29.63;;;3.90;99.90;;;;;;5084706;28;20077;-76
2022/01/15 08:18:57;;;;;;;87.60;31.65;;;3.90;99.90;;;;;;5090810;28;20032;-76
2022/01/15 08:21:26;;;;;;;93.85;33.17;;;3.90;99.90;;;;;;5092759;28;20069;-76
2022/01/15 08:23:54;;;;;;;105.78;32.42;;;4.00;99.90;;;;;;5089717;28;20024;-76
2022/01/15 08:26:20;;;;;;;92.93;31.55;;;4.00;99.90;;;;;;5088268;28;20062;-76
2022/01/15 08:28:45;;;;;;;88.80;32.47;;;3.90;99.90;;;;;;5092165;28;20441;-78
2022/01/15 08:31:11;;;;;;;105.88;34.20;;;3.90;99.90;;;;;;5092706;28;20031;-75
2022/01/15 08:33:37;;;;;;;91.70;33.00;;;4.00;99.90;;;;;;5092606;28;20027;-76
2022/01/15 08:36:02;;;;;;;91.93;31.50;;;4.00;99.90;;;;;;5091869;28;20044;-75
2022/01/15 08:38:28;;;;;;;87.63;32.95;;;4.00;99.90;;;;;;5092484;28;20050;-74
2022/01/15 08:40:54;;;;;;;104.60;35.42;;;4.00;99.90;;;;;;5092554;28;20035;-77
2022/01/15 08:43:20;;;;;;;92.18;30.90;;;4.00;99.90;;;;;;5092228;28;20020;-74
2022/01/15 08:45:47;;;;;;;82.63;31.52;;;4.10;99.90;;;;;;5092309;28;20632;-77
2022/01/15 08:48:12;;;;;;;89.28;32.42;;;4.10;99.90;;;;;;5089502;28;20523;-73
2022/01/15 08:50:38;;;;;;;84.28;29.98;;;4.20;99.90;;;;;;5091394;28;20028;-75
2022/01/15 08:53:06;;;;;;;83.40;29.80;;;4.20;99.90;;;;;;5092192;28;20493;-75
2022/01/15 08:55:33;;;;;;;84.32;30.60;;;4.10;99.90;;;;;;5092054;28;20039;-75
2022/01/15 08:57:59;;;;;;;81.38;30.23;;;4.20;99.90;;;;;;5091553;28;20028;-78
2022/01/15 09:00:28;;;;;;;80.53;29.80;;;4.20;99.90;;;;;;5092222;28;20035;-76
2022/01/15 09:02:55;;;;;;;79.18;28.10;;;4.20;99.90;;;;;;5093527;28;20024;-76
2022/01/15 09:05:22;;;;;;;79.32;28.25;;;4.20;99.90;;;;;;5090794;28;20428;-74
2022/01/15 09:07:49;;;;;;;73.03;26.27;;;4.20;99.90;;;;;;5092247;28;20024;-75
2022/01/15 09:10:15;;;;;;;87.20;25.67;;;4.20;99.90;;;;;;5091075;28;20126;-76
2022/01/15 09:12:41;;;;;;;78.63;25.63;;;4.20;99.90;;;;;;5086312;28;20050;-75
2022/01/15 09:15:07;;;;;;;65.05;25.67;;;4.20;99.90;;;;;;5082560;28;20121;-76
2022/01/15 09:17:33;;;;;;;77.95;25.30;;;4.20;99.90;;;;;;5088510;28;20034;-75
2022/01/15 09:19:58;;;;;;;63.55;23.80;;;4.20;99.90;;;;;;5088718;28;20111;-75
2022/01/15 09:22:24;;;;;;;71.15;24.83;;;4.20;99.90;;;;;;5091631;28;20024;-74
2022/01/15 09:24:49;;;;;;;65.57;22.85;;;4.20;99.90;;;;;;5091109;28;20456;-75
2022/01/15 09:30:13;;;;;;;65.15;23.35;;;4.20;99.90;;;;;;5091786;28;20051;-75
2022/01/15 09:32:47;;;;;;;68.90;23.83;;;4.10;99.90;;;;;;5091433;28;20061;-74
2022/01/15 09:35:14;;;;;;;65.78;22.50;;;4.10;99.90;;;;;;5090835;28;20047;-75
2022/01/15 09:37:43;;;;;;;69.93;23.35;;;4.10;99.90;;;;;;5081939;28;20025;-75
2022/01/15 09:40:10;;;;;;;68.25;24.85;;;4.10;99.90;;;;;;5077678;28;20020;-75
2022/01/15 09:42:38;;;;;;;63.72;23.67;;;4.10;99.90;;;;;;5094259;28;20028;-75
2022/01/15 09:45:06;;;;;;;74.63;21.85;;;4.20;99.90;;;;;;5094298;28;20020;-75
2022/01/15 09:47:32;;;;;;;59.55;23.65;;;4.10;99.90;;;;;;5092288;28;20024;-75
2022/01/15 09:49:59;;;;;;;65.75;25.15;;;4.20;99.90;;;;;;5090500;28;20016;-75
2022/01/15 09:52:25;;;;;;;90.47;25.02;;;4.20;99.90;;;;;;5092948;28;20024;-74
2022/01/15 09:54:51;;;;;;;74.97;25.33;;;4.20;99.90;;;;;;5093905;28;20111;-74
2022/01/15 09:57:17;;;;;;;60.15;22.58;;;4.30;99.90;;;;;;5096137;28;20099;-75
2022/01/15 09:59:43;;;;;;;74.07;22.48;;;4.20;99.90;;;;;;5092918;28;20043;-74
2022/01/15 10:02:09;;;;;;;73.53;25.33;;;4.20;99.90;;;;;;5093193;28;20028;-75
2022/01/15 10:04:35;;;;;;;61.13;22.05;;;4.30;99.90;;;;;;5093295;28;20044;-75
2022/01/15 10:07:17;;;;;;;55.30;21.67;;;4.30;99.90;;;;;;5093182;28;20353;-75
2022/01/15 10:09:44;;;;;;;56.75;22.52;;;4.30;99.90;;;;;;5093548;28;20507;-75
2022/01/15 10:12:11;;;;;;;52.40;19.77;;;4.30;99.90;;;;;;5092857;28;20024;-75
2022/01/15 10:14:41;;;;;;;50.47;19.55;;;4.40;99.90;;;;;;5092393;28;20020;-75
2022/01/15 10:17:33;;;;;;;58.95;21.45;;;4.40;99.90;;;;;;5090307;28;20035;-75
2022/01/15 10:19:59;;;;;;;47.05;19.77;;;4.40;99.90;;;;;;5072898;28;20032;-75
2022/01/15 10:22:26;;;;;;;56.28;20.73;;;4.40;99.90;;;;;;5073042;28;20108;-75
2022/01/15 10:24:56;;;;;;;53.85;21.33;;;4.30;99.90;;;;;;5093037;28;20028;-75
2022/01/15 10:27:24;;;;;;;51.22;22.05;;;4.40;99.90;;;;;;5092255;28;20480;-75
2022/01/15 10:29:58;;;;;;;58.13;20.92;;;4.40;99.90;;;;;;5092575;28;20039;-76
2022/01/15 10:32:29;;;;;;;61.10;21.38;;;4.40;99.90;;;;;;5092094;28;20035;-75
2022/01/15 10:34:56;;;;;;;52.10;20.83;;;4.40;99.90;;;;;;5084650;28;20035;-75
2022/01/15 10:37:24;;;;;;;47.53;19.67;;;4.50;99.90;;;;;;5072236;28;20158;-75
2022/01/15 10:40:03;;;;;;;51.10;21.00;;;4.40;99.90;;;;;;5072401;28;20035;-76
2022/01/15 10:42:29;;;;;;;54.15;21.30;;;4.40;99.90;;;;;;5071530;28;20203;-76
2022/01/15 10:44:57;;;;;;;52.10;19.27;;;4.40;99.90;;;;;;5072166;28;20028;-75
2022/01/15 10:47:26;;;;;;;53.17;19.80;;;4.50;99.90;;;;;;5071560;28;20056;-75
2022/01/15 10:49:52;;;;;;;60.97;20.10;;;4.40;99.90;;;;;;5071717;28;20059;-75
2022/01/15 10:52:23;;;;;;;64.38;20.88;;;4.40;99.90;;;;;;5071951;28;20024;-75
2022/01/15 10:55:11;;;;;;;54.70;20.90;;;4.40;99.90;;;;;;5072007;28;20443;-74
2022/01/15 10:57:42;;;;;;;60.80;21.73;;;4.40;99.90;;;;;;5071979;28;20017;-75
2022/01/15 11:00:17;;;;;;;55.83;21.27;;;4.40;99.90;;;;;;5076531;28;20437;-75
2022/01/15 11:02:48;;;;;;;52.60;18.65;;;4.40;99.90;;;;;;5075960;28;20033;-75
2022/01/15 11:05:24;;;;;;;44.78;17.70;;;4.50;99.90;;;;;;5076143;28;20508;-75
2022/01/15 11:07:52;;;;;;;38.50;16.48;;;4.50;99.90;;;;;;5077038;28;20112;-75
2022/01/15 11:10:18;;;;;;;39.92;17.25;;;4.40;99.90;;;;;;5076521;28;20025;-74
2022/01/15 11:12:43;;;;;;;39.67;16.63;;;4.40;99.90;;;;;;5075915;28;20438;-75
2022/01/15 11:15:09;;;;;;;35.85;14.32;;;4.40;99.90;;;;;;5080507;28;20142;-75
2022/01/15 11:17:35;;;;;;;37.85;16.58;;;4.40;99.90;;;;;;5086318;28;20375;-75
2022/01/15 11:20:05;;;;;;;37.50;14.00;;;4.40;99.90;;;;;;5096371;28;20024;-75
2022/01/15 11:22:33;;;;;;;34.13;14.80;;;4.40;99.90;;;;;;5088387;28;20111;-75
2022/01/15 11:24:59;;;;;;;30.30;14.85;;;4.40;99.90;;;;;;5075008;28;20107;-75
2022/01/15 11:27:31;;;;;;;40.83;16.00;;;4.30;99.90;;;;;;5075547;28;20025;-75
2022/01/15 11:29:58;;;;;;;27.40;12.75;;;4.40;99.90;;;;;;5076012;28;20085;-75
2022/01/15 11:32:27;;;;;;;28.58;13.35;;;4.40;99.90;;;;;;5074753;28;20035;-75
2022/01/15 11:35:08;;;;;;;23.10;11.88;;;4.50;99.90;;;;;;5081765;28;20119;-75
2022/01/15 11:37:47;;;;;;;21.88;12.30;;;4.50;99.90;;;;;;5092063;28;20024;-75
2022/01/15 11:40:36;;;;;;;24.15;12.38;;;4.60;99.90;;;;;;5081686;28;20549;-75
2022/01/15 11:43:28;;;;;;;22.98;13.02;;;4.60;99.90;;;;;;5091651;28;20103;-76
2022/01/15 11:45:55;;;;;;;22.95;13.40;;;4.60;99.90;;;;;;5078790;28;20386;-75
2022/01/15 11:48:27;;;;;;;21.65;12.45;;;4.50;99.90;;;;;;5095037;28;20012;-75
2022/01/15 11:51:14;;;;;;;24.38;13.50;;;4.50;99.90;;;;;;5095076;28;20034;-76
2022/01/15 11:53:47;;;;;;;20.80;11.82;;;4.50;99.90;;;;;;5075595;28;20100;-75
2022/01/15 11:56:37;;;;;;;22.25;11.80;;;4.50;99.90;;;;;;5074332;28;20071;-75
2022/01/15 11:59:29;;;;;;;28.13;13.30;;;4.50;99.90;;;;;;5071827;28;20075;-75
2022/01/15 12:02:04;;;;;;;23.80;11.43;;;4.50;99.90;;;;;;5072512;28;20033;-74
2022/01/15 12:04:38;;;;;;;26.23;11.95;;;4.50;99.90;;;;;;5075100;28;20059;-75
2022/01/15 12:07:06;;;;;;;20.15;10.90;;;4.40;99.90;;;;;;5073833;28;20060;-75
2022/01/15 12:09:43;;;;;;;20.80;11.35;;;4.40;99.90;;;;;;5074789;28;20018;-75
2022/01/15 12:12:18;;;;;;;21.30;11.93;;;4.40;99.90;;;;;;5074934;28;20032;-75
2022/01/15 12:14:50;;;;;;;21.02;12.07;;;4.40;99.90;;;;;;5074668;28;20041;-75
2022/01/15 12:17:35;;;;;;;19.85;11.75;;;4.50;99.90;;;;;;5074753;28;20486;-75
2022/01/15 12:20:04;;;;;;;20.38;11.63;;;4.50;99.90;;;;;;5074393;28;20036;-75
2022/01/15 12:22:57;;;;;;;18.33;11.05;;;4.50;99.90;;;;;;5074278;28;20023;-75
2022/01/15 12:25:26;;;;;;;16.85;10.35;;;4.60;99.90;;;;;;5074075;28;20047;-76
2022/01/15 12:28:04;;;;;;;19.33;11.05;;;4.60;99.90;;;;;;5077017;28;20100;-75
2022/01/15 12:30:35;;;;;;;19.38;11.07;;;4.60;99.90;;;;;;5074910;28;20024;-76
2022/01/15 12:33:04;;;;;;;19.08;12.40;;;4.50;99.90;;;;;;5074566;28;20040;-76
2022/01/15 12:35:32;;;;;;;19.13;9.95;;;4.50;99.90;;;;;;5073497;28;20123;-75
2022/01/15 12:38:13;;;;;;;21.58;11.32;;;4.50;99.90;;;;;;5076175;28;20028;-76
2022/01/15 12:40:46;;;;;;;22.73;12.02;;;4.50;99.90;;;;;;5074114;28;20036;-75
2022/01/15 12:43:21;;;;;;;24.63;12.68;;;4.50;99.90;;;;;;5073164;28;20302;-75
2022/01/15 12:45:48;;;;;;;21.65;12.85;;;4.50;99.90;;;;;;5073964;28;20052;-75
2022/01/15 12:48:19;;;;;;;28.23;12.30;;;4.50;99.90;;;;;;5072797;28;20035;-75
2022/01/15 12:50:46;;;;;;;;;;;4.50;99.90;;;;;;5074144;28;20050;-75
2022/01/15 12:53:12;;;;;;;24.17;12.75;;;4.40;99.90;;;;;;5073507;28;19926;-75
2022/01/15 12:55:39;;;;;;;28.30;14.23;;;4.40;99.90;;;;;;5073036;28;20112;-75
2022/01/15 12:58:06;;;;;;;26.38;14.02;;;4.50;99.90;;;;;;5073471;28;20020;-75
2022/01/15 13:00:37;;;;;;;32.50;14.15;;;4.50;99.90;;;;;;5073540;28;20103;-75
2022/01/15 13:03:12;;;;;;;;;;;4.50;99.90;;;;;;5071912;28;20568;-75
2022/01/15 13:05:42;;;;;;;30.27;13.82;;;4.40;99.90;;;;;;5072995;28;20383;-75
2022/01/15 13:08:13;;;;;;;32.88;16.20;;;4.30;99.90;;;;;;5073889;28;20032;-75
2022/01/15 13:10:52;;;;;;;29.77;15.20;;;4.30;99.90;;;;;;5074612;28;20047;-75
2022/01/15 13:13:39;;;;;;;30.95;14.13;;;4.30;99.90;;;;;;5091688;28;20078;-75